Time;durP1;ratioP1;P1;durP2;ratioP2;P2;SDS_P1;SDS_P2;PMS_P1;PMS_P2;Temp;Humidity;BMP_temperature;BMP_pressure;BME280_temperature;BME280_humidity;BME280_pressure;Samples;Min_cycle;Max_cycle;Signal;HPM_P1;HPM_P2
2021/08/26 00:06:58;;;;;;;5.90;3.95;;;;;;;14.76;93.64;100819.31;1804252;78;26310;-60
2021/08/26 00:09:25;;;;;;;5.60;3.75;;;;;;;14.75;94.70;100818.14;1823645;77;25929;-60
2021/08/26 00:11:54;;;;;;;6.67;3.30;;;;;;;14.75;94.70;100823.55;1843031;77;26494;-60
2021/08/26 00:14:23;;;;;;;5.58;3.55;;;;;;;14.73;95.25;100820.15;1843960;77;25880;-60
2021/08/26 00:16:50;;;;;;;4.35;3.62;;;;;;;14.67;95.03;100825.19;1843764;77;27476;-60
2021/08/26 00:19:19;;;;;;;9.28;4.05;;;;;;;14.52;95.01;100825.42;1843455;77;25706;-60
2021/08/26 00:21:46;;;;;;;6.25;3.58;;;;;;;14.38;95.18;100819.61;1827899;77;25709;-60
2021/08/26 00:24:13;;;;;;;4.28;3.62;;;;;;;14.39;96.68;100812.33;1822941;78;25791;-60
2021/08/26 00:26:40;;;;;;;7.33;4.70;;;;;;;14.45;98.15;100824.38;1838152;78;25680;-60
2021/08/26 00:29:07;;;;;;;7.37;4.45;;;;;;;14.38;98.32;100825.51;1838008;77;27444;-60
2021/08/26 00:31:34;;;;;;;5.50;4.40;;;;;;;14.28;98.53;100824.28;1837878;78;25817;-60
2021/08/26 00:34:02;;;;;;;5.75;5.05;;;;;;;14.18;97.92;100820.30;1838083;77;26298;-61
2021/08/26 00:36:29;;;;;;;9.78;5.28;;;;;;;14.15;97.77;100818.42;1838177;78;25979;-60
2021/08/26 00:38:56;;;;;;;9.75;5.78;;;;;;;14.23;98.33;100815.77;1838105;77;25774;-60
2021/08/26 00:41:25;;;;;;;9.18;5.42;;;;;;;14.30;97.86;100816.82;1813842;78;27450;-61
2021/08/26 00:43:52;;;;;;;9.95;5.85;;;;;;;14.32;97.82;100808.56;1822058;78;25986;-61
2021/08/26 00:46:19;;;;;;;11.78;6.28;;;;;;;14.37;97.71;100817.04;1836250;78;26420;-61
2021/08/26 00:48:48;;;;;;;10.98;6.60;;;;;;;14.47;97.49;100808.83;1838117;78;26509;-60
2021/08/26 00:51:17;;;;;;;8.78;6.20;;;;;;;14.58;97.86;100801.75;1836785;78;25754;-60
2021/08/26 00:53:45;;;;;;;15.20;6.20;;;;;;;14.68;98.02;100805.22;1795982;79;28803;-61
2021/08/26 00:56:18;;;;;;;18.07;6.87;;;;;;;14.73;97.77;100807.97;1796211;79;25830;-61
2021/08/26 00:58:49;;;;;;;7.80;6.58;;;;;;;14.70;96.97;100809.98;1796388;79;25782;-61
2021/08/26 01:01:24;;;;;;;9.58;7.30;;;;;;;14.74;96.66;100809.66;1804431;78;26422;-61
2021/08/26 01:04:17;;;;;;;8.05;6.83;;;;;;;14.71;96.40;100808.97;1837939;78;25915;-61
2021/08/26 01:06:57;;;;;;;11.48;7.67;;;;;;;14.65;96.00;100810.09;1823409;77;27484;-61
2021/08/26 01:09:29;;;;;;;12.78;8.48;;;;;;;14.67;96.32;100811.64;1788276;79;26477;-61
2021/08/26 01:11:57;;;;;;;9.50;7.87;;;;;;;14.75;96.32;100801.37;1788218;80;25649;-61
2021/08/26 01:14:26;;;;;;;13.22;9.23;;;;;;;14.80;95.86;100803.59;1787778;80;25908;-65
2021/08/26 01:16:52;;;;;;;10.75;9.33;;;;;;;14.83;95.63;100808.69;1803010;78;25711;-60
2021/08/26 01:19:19;;;;;;;16.25;10.35;;;;;;;14.82;95.49;100803.76;1836235;78;28171;-61
2021/08/26 01:21:46;;;;;;;19.07;10.08;;;;;;;14.76;95.01;100807.13;1837281;78;25891;-61
2021/08/26 01:24:17;;;;;;;16.95;10.75;;;;;;;14.75;94.95;100808.66;1819550;78;25703;-61
2021/08/26 01:26:51;;;;;;;15.38;10.98;;;;;;;14.79;95.24;100810.02;1818608;78;25761;-61
2021/08/26 01:29:20;;;;;;;25.57;10.63;;;;;;;14.89;95.62;100803.09;1831335;78;25774;-61
2021/08/26 01:31:47;;;;;;;17.02;11.50;;;;;;;14.91;95.05;100792.95;1833266;78;27470;-61
2021/08/26 01:34:16;;;;;;;14.58;10.50;;;;;;;14.95;95.10;100788.92;1832939;78;26245;-61
2021/08/26 01:36:44;;;;;;;15.18;10.80;;;;;;;14.98;94.61;100784.02;1833295;78;25793;-61
2021/08/26 01:39:15;;;;;;;15.55;11.22;;;;;;;15.03;94.91;100787.59;1832920;77;26136;-61
2021/08/26 01:41:49;;;;;;;14.90;10.38;;;;;;;15.07;94.92;100786.74;1832941;78;26483;-61
2021/08/26 01:44:27;;;;;;;14.73;10.25;;;;;;;14.97;93.64;100776.90;1832993;78;27520;-61
2021/08/26 01:47:17;;;;;;;15.43;9.83;;;;;;;15.00;94.28;100769.80;1832317;78;25738;-60
2021/08/26 01:49:44;;;;;;;10.18;8.55;;;;;;;14.97;93.94;100762.00;1832774;77;25805;-61
2021/08/26 01:52:17;;;;;;;10.75;7.65;;;;;;;15.00;94.18;100764.88;1832718;77;25848;-62
2021/08/26 01:54:52;;;;;;;21.68;7.58;;;;;;;14.93;93.18;100771.45;1832968;77;26497;-61
2021/08/26 01:57:21;;;;;;;11.33;7.42;;;;;;;14.89;93.66;100770.11;1832852;77;27456;-61
2021/08/26 01:59:48;;;;;;;11.95;7.35;;;;;;;14.88;93.93;100771.63;1832876;78;26360;-61
2021/08/26 02:02:15;;;;;;;11.33;6.62;;;;;;;14.90;93.89;100775.00;1833092;77;25800;-61
2021/08/26 02:04:42;;;;;;;11.53;7.40;;;;;;;14.91;93.95;100787.53;1832753;77;25832;-61
2021/08/26 02:07:10;;;;;;;14.87;7.10;;;;;;;14.85;93.08;100779.56;1833229;78;25745;-61
2021/08/26 02:09:37;;;;;;;9.60;6.65;;;;;;;14.75;92.62;100774.81;1832990;78;27518;-61
2021/08/26 02:12:05;;;;;;;8.58;6.87;;;;;;;14.80;93.25;100771.92;1810393;77;25774;-61
2021/08/26 02:14:32;;;;;;;7.55;6.78;;;;;;;14.83;93.34;100759.42;1807619;79;25793;-61
2021/08/26 02:16:59;;;;;;;9.50;7.05;;;;;;;14.91;93.84;100766.73;1816705;78;25818;-61
2021/08/26 02:19:25;;;;;;;10.50;7.37;;;;;;;14.96;93.77;100774.37;1832563;77;26406;-60
2021/08/26 02:21:53;;;;;;;10.68;7.30;;;;;;;14.90;93.10;100772.30;1830849;78;27485;-61
2021/08/26 02:24:19;;;;;;;10.03;7.45;;;;;;;14.83;92.75;100776.19;1805948;79;25852;-61
2021/08/26 02:26:46;;;;;;;12.28;7.35;;;;;;;14.75;92.76;100770.23;1810411;78;25718;-61
2021/08/26 02:29:13;;;;;;;12.82;8.28;;;;;;;14.56;93.14;100771.31;1827012;78;25787;-61
2021/08/26 02:31:40;;;;;;;11.03;8.45;;;;;;;14.44;93.10;100773.95;1827152;78;25755;-61
2021/08/26 02:34:07;;;;;;;14.98;8.85;;;;;;;14.36;93.67;100761.22;1827142;78;27470;-61
2021/08/26 02:36:34;;;;;;;13.70;8.63;;;;;;;14.32;93.72;100751.22;1822974;77;26574;-60
2021/08/26 02:39:00;;;;;;;13.85;9.28;;;;;;;14.44;94.38;100757.71;1796488;79;25862;-60
2021/08/26 02:41:28;;;;;;;16.45;10.15;;;;;;;14.48;94.08;100745.53;1794632;79;26489;-60
2021/08/26 02:43:55;;;;;;;13.72;9.95;;;;;;;14.56;94.58;100751.02;1794518;79;25839;-61
2021/08/26 02:46:22;;;;;;;14.23;9.70;;;;;;;14.54;93.84;100757.92;1795854;78;27511;-60
2021/08/26 02:48:48;;;;;;;12.25;9.98;;;;;;;14.47;93.56;100766.36;1819378;78;25742;-62
2021/08/26 02:51:15;;;;;;;12.53;9.43;;;;;;;14.42;93.41;100762.44;1796864;78;25688;-61
2021/08/26 02:53:42;;;;;;;12.58;9.83;;;;;;;14.34;94.08;100759.20;1796383;78;26180;-60
2021/08/26 02:56:09;;;;;;;14.80;10.38;;;;;;;14.32;94.04;100754.45;1799747;78;25771;-61
2021/08/26 02:58:36;;;;;;;17.20;11.03;;;;;;;14.23;94.36;100760.30;1827207;78;27481;-61
2021/08/26 03:01:03;;;;;;;12.53;9.40;;;;;;;14.22;94.45;100755.90;1824988;78;25861;-62
2021/08/26 03:03:30;;;;;;;16.87;9.50;;;;;;;14.17;94.70;100759.08;1795052;79;25610;-61
2021/08/26 03:05:57;;;;;;;11.30;10.10;;;;;;;14.23;95.12;100758.95;1795629;78;26186;-61
2021/08/26 03:08:24;;;;;;;15.80;9.88;;;;;;;14.18;94.50;100756.73;1828630;78;25893;-62
2021/08/26 03:10:51;;;;;;;14.18;10.38;;;;;;;14.19;94.91;100761.13;1828409;77;27472;-62
2021/08/26 03:13:18;;;;;;;14.90;10.78;;;;;;;14.17;95.08;100764.50;1828176;78;25694;-62
2021/08/26 03:15:45;;;;;;;16.17;10.55;;;;;;;14.15;95.07;100771.08;1828289;78;25461;-61
2021/08/26 03:18:12;;;;;;;20.05;9.90;;;;;;;14.16;94.85;100768.23;1827988;78;25764;-61
2021/08/26 03:20:40;;;;;;;18.00;11.22;;;;;;;14.16;95.55;100760.13;1828636;78;25827;-62
2021/08/26 03:23:07;;;;;;;16.93;11.35;;;;;;;14.13;95.26;100760.43;1828537;77;27457;-61
2021/08/26 03:25:34;;;;;;;17.40;10.78;;;;;;;14.13;95.34;100759.56;1827795;78;26445;-61
2021/08/26 03:28:01;;;;;;;13.78;9.55;;;;;;;14.17;95.39;100759.60;1827719;78;25782;-61
2021/08/26 03:30:28;;;;;;;12.95;9.10;;;;;;;14.23;95.65;100767.94;1827832;78;26592;-61
2021/08/26 03:32:55;;;;;;;14.15;9.85;;;;;;;14.25;95.56;100775.36;1828094;77;25827;-61
2021/08/26 03:35:22;;;;;;;11.57;8.25;;;;;;;14.24;95.30;100774.18;1828315;78;28185;-61
2021/08/26 03:37:49;;;;;;;11.40;8.58;;;;;;;14.22;95.33;100774.34;1804122;78;25917;-61
2021/08/26 03:40:16;;;;;;;12.35;9.28;;;;;;;14.23;95.54;100766.58;1794158;80;25626;-61
2021/08/26 03:42:43;;;;;;;11.18;7.67;;;;;;;14.19;94.87;100767.06;1794193;80;25844;-60
2021/08/26 03:45:11;;;;;;;11.88;8.93;;;;;;;14.16;95.13;100760.61;1794201;80;25735;-61
2021/08/26 03:47:39;;;;;;;11.75;8.35;;;;;;;14.18;95.21;100754.02;1800468;78;27435;-62
2021/08/26 03:50:07;;;;;;;11.00;8.35;;;;;;;14.22;95.20;100758.12;1795710;78;26404;-60
2021/08/26 03:52:34;;;;;;;13.38;8.25;;;;;;;14.35;95.30;100752.75;1795571;79;25648;-61
2021/08/26 03:55:01;;;;;;;16.40;9.48;;;;;;;14.40;94.96;100752.61;1795471;79;25796;-61
2021/08/26 03:57:28;;;;;;;13.18;8.35;;;;;;;14.46;94.65;100758.41;1812971;78;25749;-61
2021/08/26 03:59:54;;;;;;;12.43;8.70;;;;;;;14.51;94.46;100763.69;1828355;78;28207;-61
2021/08/26 04:02:23;;;;;;;14.85;10.48;;;;;;;14.58;94.56;100763.86;1828129;78;25713;-61
2021/08/26 04:04:50;;;;;;;18.05;10.10;;;;;;;14.67;94.28;100772.39;1828452;78;25754;-61
2021/08/26 04:07:18;;;;;;;14.03;10.48;;;;;;;14.66;93.63;100774.75;1813031;78;25806;-61
2021/08/26 04:09:46;;;;;;;13.00;8.68;;;;;;;14.62;93.39;100779.27;1794163;80;25883;-62
2021/08/26 04:12:13;;;;;;;12.10;9.58;;;;;;;14.58;93.12;100767.91;1793958;80;27537;-62
2021/08/26 04:14:40;;;;;;;12.40;9.40;;;;;;;14.62;93.39;100763.02;1795497;78;25723;-61
2021/08/26 04:17:07;;;;;;;13.35;10.28;;;;;;;14.67;93.44;100753.95;1816071;78;25423;-61
2021/08/26 04:19:35;;;;;;;19.27;10.40;;;;;;;14.69;93.37;100756.00;1794409;78;25753;-61
2021/08/26 04:22:03;;;;;;;14.43;10.63;;;;;;;14.74;93.80;100754.16;1794244;80;25695;-60
2021/08/26 04:24:29;;;;;;;16.10;11.43;;;;;;;14.72;93.32;100750.23;1819867;78;27419;-61
2021/08/26 04:26:56;;;;;;;16.65;11.25;;;;;;;14.75;93.34;100753.15;1818965;78;25936;-60
2021/08/26 04:29:24;;;;;;;16.17;10.68;;;;;;;14.83;93.33;100748.59;1820005;78;25877;-60
2021/08/26 04:31:51;;;;;;;14.98;11.30;;;;;;;14.94;93.59;100748.78;1828066;78;25843;-60
2021/08/26 04:34:18;;;;;;;18.42;11.03;;;;;;;14.96;92.84;100745.92;1828108;78;25773;-61
2021/08/26 04:36:45;;;;;;;19.27;11.83;;;;;;;15.05;93.61;100746.28;1825925;78;27471;-61
2021/08/26 04:39:12;;;;;;;19.40;11.57;;;;;;;15.12;93.18;100743.73;1827931;78;26439;-61
2021/08/26 04:41:39;;;;;;;14.98;10.68;;;;;;;15.23;93.79;100748.84;1828250;78;25423;-61
2021/08/26 04:44:07;;;;;;;20.15;11.48;;;;;;;15.28;93.56;100746.48;1828418;78;26498;-61
2021/08/26 04:46:35;;;;;;;18.95;12.00;;;;;;;15.21;92.12;100750.86;1819476;77;25429;-60
2021/08/26 04:49:01;;;;;;;17.73;11.90;;;;;;;15.12;91.55;100754.08;1828549;78;27421;-61
2021/08/26 04:51:28;;;;;;;28.73;14.68;;;;;;;15.07;91.47;100757.78;1828067;78;25437;-60
2021/08/26 04:53:56;;;;;;;21.68;12.60;;;;;;;15.01;91.68;100752.55;1828217;77;25680;-61
2021/08/26 04:56:23;;;;;;;22.65;11.83;;;;;;;14.98;91.29;100738.45;1828310;78;26683;-61
2021/08/26 04:58:49;;;;;;;15.58;11.88;;;;;;;15.10;92.06;100738.48;1828188;78;25868;-61
2021/08/26 05:01:16;;;;;;;22.27;13.70;;;;;;;15.15;91.73;100736.63;1810872;78;27475;-61
2021/08/26 05:03:43;;;;;;;16.97;11.73;;;;;;;15.25;91.25;100736.47;1794418;79;25786;-62
2021/08/26 05:06:11;;;;;;;21.33;11.70;;;;;;;15.38;91.12;100742.73;1793878;80;25695;-61
2021/08/26 05:08:39;;;;;;;23.60;14.87;;;;;;;15.45;91.38;100751.92;1794099;80;25917;-62
2021/08/26 05:11:06;;;;;;;19.17;11.63;;;;;;;15.49;90.77;100751.91;1794281;78;25821;-61
2021/08/26 05:13:33;;;;;;;19.27;12.47;;;;;;;15.56;90.51;100758.34;1794306;80;27429;-61
2021/08/26 05:16:00;;;;;;;18.45;12.55;;;;;;;15.68;91.08;100739.02;1794254;80;25755;-61
2021/08/26 05:18:27;;;;;;;19.85;13.35;;;;;;;15.81;90.87;100736.65;1793790;78;25759;-62
2021/08/26 05:20:54;;;;;;;18.12;11.65;;;;;;;15.92;90.11;100743.61;1794206;80;25770;-61
2021/08/26 05:23:20;;;;;;;12.53;9.05;;;;;;;15.94;89.74;100753.27;1799340;78;25793;-62
2021/08/26 05:25:48;;;;;;;17.60;12.75;;;;;;;15.94;89.67;100752.43;1813054;77;28225;-61
2021/08/26 05:28:15;;;;;;;19.75;11.28;;;;;;;15.93;89.55;100756.16;1807065;77;26169;-61
2021/08/26 05:30:41;;;;;;;18.35;10.90;;;;;;;16.04;89.64;100750.88;1798849;79;25727;-60
2021/08/26 05:33:09;;;;;;;16.32;11.05;;;;;;;16.19;89.96;100749.66;1798781;78;25791;-61
2021/08/26 05:35:36;;;;;;;17.75;10.78;;;;;;;16.26;90.74;100755.58;1798893;78;25715;-61
2021/08/26 05:38:03;;;;;;;14.53;10.30;;;;;;;16.33;90.46;100746.20;1798459;79;27429;-61
2021/08/26 05:40:30;;;;;;;12.15;9.30;;;;;;;16.46;90.58;100747.01;1832612;77;25828;-61
2021/08/26 05:42:57;;;;;;;14.98;9.45;;;;;;;16.53;87.55;100752.59;1843611;77;25778;-61
2021/08/26 05:45:24;;;;;;;16.50;11.45;;;;;;;16.55;86.41;100754.09;1843784;77;25787;-61
2021/08/26 05:47:55;;;;;;;13.72;9.23;;;;;;;16.59;88.08;100754.09;1843568;77;25778;-60
2021/08/26 05:50:19;;;;;;;17.07;10.58;;;;;;;16.67;88.49;100754.58;1803913;77;28239;-61
2021/08/26 05:52:47;;;;;;;15.58;10.40;;;;;;;16.73;88.21;100751.15;1813090;77;25810;-61
2021/08/26 05:55:20;;;;;;;16.07;11.15;;;;;;;16.80;88.54;100748.58;1838870;77;25921;-60
2021/08/26 05:57:47;;;;;;;11.43;9.00;;;;;;;16.85;88.17;100746.69;1827519;77;26237;-61
2021/08/26 06:00:21;;;;;;;13.38;8.78;;;;;;;16.87;86.26;100740.53;1817760;77;25810;-62
2021/08/26 06:02:59;;;;;;;14.53;9.40;;;;;;;16.86;86.37;100748.35;1823976;77;26046;-66
2021/08/26 06:05:32;;;;;;;15.90;8.80;;;;;;;16.92;85.94;100752.23;1798728;77;25894;-60
2021/08/26 06:08:00;;;;;;;13.05;10.08;;;;;;;16.95;86.56;100753.27;1839421;77;25714;-60
2021/08/26 06:10:26;;;;;;;16.52;10.75;;;;;;;17.00;86.95;100756.28;1809035;79;25980;-60
2021/08/26 06:12:53;;;;;;;14.28;10.18;;;;;;;16.94;85.28;100756.52;1808796;79;25854;-60
2021/08/26 06:15:20;;;;;;;16.25;10.98;;;;;;;16.85;84.69;100758.91;1816195;77;27446;-60
2021/08/26 06:17:47;;;;;;;19.17;10.30;;;;;;;16.83;83.85;100758.23;1829501;77;25873;-60
2021/08/26 06:20:16;;;;;;;14.33;10.43;;;;;;;16.89;83.43;100754.80;1832119;77;25840;-60
2021/08/26 06:22:43;;;;;;;14.95;9.70;;;;;;;16.94;83.88;100758.37;1833509;77;25767;-60
2021/08/26 06:25:12;;;;;;;14.00;9.18;;;;;;;17.06;83.24;100755.59;1828703;77;26224;-60
2021/08/26 06:27:39;;;;;;;14.03;9.28;;;;;;;17.16;83.58;100749.41;1824541;78;27525;-60
2021/08/26 06:30:10;;;;;;;16.02;9.38;;;;;;;17.21;82.20;100743.44;1817737;77;25855;-60
2021/08/26 06:32:38;;;;;;;12.47;8.95;;;;;;;17.30;82.08;100740.12;1813838;78;25758;-60
2021/08/26 06:35:07;;;;;;;14.63;8.53;;;;;;;17.41;81.06;100747.87;1795307;77;26442;-60
2021/08/26 06:37:33;;;;;;;12.88;9.28;;;;;;;17.50;80.88;100745.41;1828767;77;25793;-60
2021/08/26 06:40:01;;;;;;;14.87;9.35;;;;;;;17.58;80.94;100751.81;1832308;77;27439;-60
2021/08/26 06:42:28;;;;;;;13.90;8.15;;;;;;;17.64;80.51;100744.27;1832513;78;26433;-61
2021/08/26 06:44:55;;;;;;;11.90;8.13;;;;;;;17.71;80.00;100743.02;1816769;77;25730;-60
2021/08/26 06:47:22;;;;;;;14.65;8.45;;;;;;;17.76;79.22;100745.53;1815971;77;25808;-60
2021/08/26 06:49:49;;;;;;;15.20;8.98;;;;;;;17.88;79.94;100745.09;1804933;78;25722;-60
2021/08/26 06:52:16;;;;;;;11.70;8.18;;;;;;;18.05;78.83;100739.84;1804902;79;27458;-60
2021/08/26 06:54:43;;;;;;;12.18;7.95;;;;;;;18.21;78.13;100741.52;1804736;79;26274;-60
2021/08/26 06:57:10;;;;;;;13.08;7.47;;;;;;;18.34;77.67;100746.83;1813733;78;25782;-60
2021/08/26 06:59:37;;;;;;;11.50;7.80;;;;;;;18.46;77.28;100736.63;1833083;78;25810;-60
2021/08/26 07:02:05;;;;;;;11.63;6.72;;;;;;;18.60;77.15;100739.02;1833099;77;26355;-61
2021/08/26 07:04:31;;;;;;;12.53;7.05;;;;;;;18.72;74.20;100742.63;1832746;78;27478;-61
2021/08/26 07:06:58;;;;;;;13.40;8.18;;;;;;;18.68;71.68;100737.21;1832653;78;25727;-61
2021/08/26 07:09:26;;;;;;;11.40;7.12;;;;;;;18.54;71.69;100744.38;1832739;78;25735;-61
2021/08/26 07:11:53;;;;;;;14.70;7.87;;;;;;;18.42;72.64;100741.28;1833059;78;26598;-61
2021/08/26 07:14:19;;;;;;;10.63;7.53;;;;;;;18.34;73.90;100740.86;1827772;77;26516;-60
2021/08/26 07:16:46;;;;;;;11.08;7.35;;;;;;;18.27;71.91;100744.88;1828257;78;28236;-60
2021/08/26 07:19:13;;;;;;;12.43;8.33;;;;;;;18.23;73.48;100753.07;1832713;77;25754;-60
2021/08/26 07:21:41;;;;;;;10.40;7.92;;;;;;;18.13;72.94;100743.83;1830408;77;25785;-60
2021/08/26 07:24:08;;;;;;;11.38;7.97;;;;;;;18.15;74.02;100747.19;1826279;78;26501;-60
2021/08/26 07:26:35;;;;;;;10.48;8.25;;;;;;;18.18;73.98;100750.08;1816245;77;25821;-60
2021/08/26 07:29:03;;;;;;;11.33;6.90;;;;;;;18.14;73.78;100749.61;1829289;77;27473;-60
2021/08/26 07:31:30;;;;;;;8.05;6.50;;;;;;;18.17;74.26;100750.25;1843532;77;25943;-61
2021/08/26 07:33:57;;;;;;;14.40;6.70;;;;;;;18.16;74.21;100748.05;1844010;77;25831;-61
2021/08/26 07:36:24;;;;;;;11.00;6.53;;;;;;;18.16;74.32;100752.14;1843719;77;25785;-60
2021/08/26 07:38:51;;;;;;;9.08;6.20;;;;;;;18.21;74.71;100753.77;1843251;77;26253;-60
2021/08/26 07:41:18;;;;;;;14.20;6.67;;;;;;;18.25;74.33;100756.95;1843586;77;27454;-60
2021/08/26 07:43:56;;;;;;;12.93;7.90;;;;;;;18.28;74.15;100757.45;1808819;77;25786;-62
2021/08/26 07:46:25;;;;;;;11.78;6.47;;;;;;;18.34;74.22;100757.20;1790785;77;25793;-61
2021/08/26 07:48:52;;;;;;;11.53;7.30;;;;;;;18.40;74.02;100757.83;1844031;77;26453;-61
2021/08/26 07:51:19;;;;;;;13.15;6.83;;;;;;;18.42;72.52;100761.72;1843640;77;25694;-60
2021/08/26 07:53:46;;;;;;;10.60;6.67;;;;;;;18.42;72.42;100763.08;1843734;77;27460;-60
2021/08/26 07:56:13;;;;;;;9.68;7.15;;;;;;;18.51;73.08;100759.22;1843262;77;25752;-60
2021/08/26 07:58:40;;;;;;;9.93;6.35;;;;;;;18.57;72.32;100753.53;1836011;77;25896;-60
2021/08/26 08:01:06;;;;;;;10.48;5.87;;;;;;;18.65;72.21;100747.98;1840064;77;26338;-61
2021/08/26 08:03:33;;;;;;;10.93;6.03;;;;;;;18.74;72.25;100748.70;1838019;77;25805;-60
2021/08/26 08:06:02;;;;;;;11.88;5.60;;;;;;;18.73;71.23;100753.32;1827639;77;27446;-61
2021/08/26 08:08:29;;;;;;;7.50;5.42;;;;;;;18.82;71.62;100745.89;1798655;79;25888;-61
2021/08/26 08:10:57;;;;;;;8.10;6.12;;;;;;;18.90;71.28;100754.45;1809649;77;25823;-60
2021/08/26 08:13:24;;;;;;;11.83;6.00;;;;;;;18.97;71.60;100748.59;1824846;77;26637;-61
2021/08/26 08:16:04;;;;;;;9.18;6.62;;;;;;;19.08;71.62;100752.72;1829108;77;26102;-61
2021/08/26 08:18:49;;;;;;;12.68;6.85;;;;;;;19.17;70.92;100754.28;1782784;77;26417;-61
2021/08/26 08:21:12;;;;;;;17.60;7.45;;;;;;;19.19;68.93;100752.19;1833898;77;26027;-61
2021/08/26 08:23:40;;;;;;;7.87;6.25;;;;;;;19.14;67.87;100743.75;1840525;77;25742;-60
2021/08/26 08:26:10;;;;;;;10.98;6.87;;;;;;;19.18;68.40;100746.43;1824522;77;26628;-61
2021/08/26 08:28:38;;;;;;;10.35;7.25;;;;;;;19.13;66.48;100750.77;1813626;78;25836;-61
2021/08/26 08:31:05;;;;;;;12.93;7.22;;;;;;;19.11;66.80;100745.49;1760607;77;27436;-60
2021/08/26 08:33:35;;;;;;;8.88;6.62;;;;;;;19.18;67.06;100736.89;1793790;78;25885;-60
2021/08/26 08:36:03;;;;;;;10.53;6.47;;;;;;;19.33;66.98;100738.16;1832381;78;25719;-60
2021/08/26 08:38:31;;;;;;;11.05;6.78;;;;;;;19.57;67.07;100735.23;1833492;78;26325;-60
2021/08/26 08:40:58;;;;;;;9.53;6.05;;;;;;;19.82;66.73;100725.56;1838160;78;25826;-60
2021/08/26 08:43:24;;;;;;;8.43;7.30;;;;;;;19.95;64.89;100728.94;1837938;78;27454;-60
2021/08/26 08:45:53;;;;;;;17.12;7.65;;;;;;;20.03;64.24;100729.85;1835371;78;25731;-61
2021/08/26 08:48:21;;;;;;;7.33;5.72;;;;;;;20.17;64.64;100730.25;1793663;78;25779;-61
2021/08/26 08:50:50;;;;;;;6.87;5.55;;;;;;;20.44;64.33;100720.83;1793980;78;26425;-62
2021/08/26 08:53:18;;;;;;;18.20;7.10;;;;;;;20.72;64.69;100723.46;1793673;78;25772;-60
2021/08/26 08:55:47;;;;;;;12.30;6.30;;;;;;;21.11;63.65;100716.45;1814040;77;27573;-61
2021/08/26 08:58:14;;;;;;;8.40;6.53;;;;;;;21.31;62.81;100716.16;1823359;77;25702;-61
2021/08/26 09:00:41;;;;;;;12.00;7.05;;;;;;;21.23;62.02;100710.38;1821403;77;25776;-61
2021/08/26 09:03:09;;;;;;;10.13;6.30;;;;;;;21.25;62.87;100706.89;1804704;77;26371;-61
2021/08/26 09:05:55;;;;;;;12.45;6.87;;;;;;;21.26;63.06;100701.73;1821037;77;25793;-60
2021/08/26 09:08:25;;;;;;;6.78;6.08;;;;;;;21.27;62.23;100700.69;1799381;77;28295;-62
2021/08/26 09:10:55;;;;;;;8.68;6.58;;;;;;;21.20;60.32;100703.41;1811588;77;25852;-61
2021/08/26 09:13:33;;;;;;;9.98;6.33;;;;;;;21.03;60.82;100702.13;1813134;77;25798;-60
2021/08/26 09:16:02;;;;;;;7.00;6.00;;;;;;;21.02;60.45;100701.83;1769503;78;25700;-61
2021/08/26 09:18:30;;;;;;;8.83;6.50;;;;;;;20.96;60.59;100702.13;1796075;77;25818;-61
2021/08/26 09:21:05;;;;;;;12.73;9.30;;;;;;;21.08;60.29;100708.66;1796564;77;27461;-62
2021/08/26 09:23:36;;;;;;;11.88;8.03;;;;;;;21.44;61.46;100703.88;1808838;78;26443;-61
2021/08/26 09:26:25;;;;;;;11.28;6.70;;;;;;;22.08;58.17;100710.25;1791150;77;25731;-61
2021/08/26 09:28:55;;;;;;;17.80;11.08;;;;;;;22.19;56.08;100709.59;1810534;77;25785;-62
2021/08/26 09:31:24;;;;;;;11.97;6.45;;;;;;;22.04;56.29;100708.47;1795456;78;25776;-61
2021/08/26 09:34:05;;;;;;;8.90;6.28;;;;;;;21.94;56.28;100708.92;1811469;78;27452;-61
2021/08/26 09:36:35;;;;;;;10.98;5.90;;;;;;;21.90;57.06;100714.50;1801438;78;26736;-61
2021/08/26 09:39:10;;;;;;;10.18;5.87;;;;;;;21.84;56.07;100713.45;1825757;78;25697;-61
2021/08/26 09:41:52;;;;;;;10.68;6.45;;;;;;;22.36;56.22;100712.72;1829047;77;26596;-61
2021/08/26 09:44:30;;;;;;;9.13;6.47;;;;;;;23.45;57.25;100710.03;1850933;77;25832;-61
2021/08/26 09:47:02;;;;;;;10.43;7.40;;;;;;;24.47;53.00;100714.02;1822802;77;28137;-61
2021/08/26 09:49:33;;;;;;;10.47;7.13;;;;;;;24.10;51.08;100715.39;1822425;78;25735;-61
2021/08/26 09:52:17;;;;;;;12.23;6.35;;;;;;;23.88;51.49;100708.94;1800648;78;25769;-62
2021/08/26 09:54:51;;;;;;;7.45;6.10;;;;;;;23.85;50.75;100704.71;1783885;79;26416;-62
2021/08/26 09:57:30;;;;;;;12.23;6.25;;;;;;;23.60;52.54;100699.27;1787826;78;25616;-61
2021/08/26 10:00:03;;;;;;;7.75;5.95;;;;;;;23.45;52.91;100703.17;1828556;78;28791;-62
2021/08/26 10:02:32;;;;;;;9.55;6.65;;;;;;;23.37;51.50;100697.95;1823034;78;25840;-60
2021/08/26 10:05:00;;;;;;;7.62;5.53;;;;;;;23.02;51.61;100692.90;1812749;78;25939;-60
2021/08/26 10:07:28;;;;;;;10.93;4.78;;;;;;;22.88;51.87;100692.69;1821724;78;25809;-60
2021/08/26 10:09:55;;;;;;;11.65;5.78;;;;;;;22.97;51.55;100693.56;1827292;78;25998;-60
2021/08/26 10:12:22;;;;;;;9.58;5.53;;;;;;;24.01;51.60;100698.37;1827007;78;27447;-60
2021/08/26 10:14:52;;;;;;;7.85;4.83;;;;;;;25.02;49.19;100691.08;1826724;77;25825;-60
2021/08/26 10:17:20;;;;;;;7.60;3.65;;;;;;;25.81;46.65;100696.09;1808458;78;25840;-60
2021/08/26 10:19:49;;;;;;;7.22;4.80;;;;;;;26.52;44.00;100694.08;1832204;78;26481;-61
2021/08/26 10:22:17;;;;;;;5.15;4.05;;;;;;;27.48;41.79;100698.08;1818127;77;25841;-61
2021/08/26 10:24:43;;;;;;;7.53;4.03;;;;;;;27.96;40.11;100692.16;1825594;77;27448;-61
2021/08/26 10:27:18;;;;;;;5.60;3.60;;;;;;;28.08;39.85;100686.02;1827993;77;25771;-61
2021/08/26 10:29:48;;;;;;;5.22;3.17;;;;;;;28.35;39.08;100683.02;1835644;77;25757;-61
2021/08/26 10:32:25;;;;;;;3.52;3.22;;;;;;;27.97;41.04;100684.16;1841628;77;26955;-61
2021/08/26 10:35:13;;;;;;;5.62;4.17;;;;;;;27.65;41.54;100679.30;1836847;77;26423;-61
2021/08/26 10:37:52;;;;;;;9.48;4.95;;;;;;;27.10;40.42;100683.06;1834968;77;27613;-61
2021/08/26 10:40:39;;;;;;;5.30;3.80;;;;;;;26.44;41.26;100676.53;1821535;77;25830;-61
2021/08/26 10:43:07;;;;;;;6.00;4.67;;;;;;;26.14;42.96;100674.80;1807580;77;26465;-61
2021/08/26 10:45:50;;;;;;;7.20;4.78;;;;;;;26.21;43.58;100674.16;1794519;78;25914;-61
2021/08/26 10:48:21;;;;;;;10.25;4.42;;;;;;;26.23;43.74;100669.77;1833496;77;26318;-61
2021/08/26 10:51:18;;;;;;;6.00;4.00;;;;;;;26.08;44.13;100668.37;1831838;77;27443;-62
2021/08/26 10:53:48;;;;;;;4.97;3.60;;;;;;;25.95;43.53;100672.72;1813790;77;25844;-62
2021/08/26 10:56:32;;;;;;;7.00;4.17;;;;;;;26.55;42.37;100664.63;1831507;77;25763;-61
2021/08/26 10:59:01;;;;;;;4.87;4.05;;;;;;;26.81;43.08;100673.95;1837635;77;25747;-61
2021/08/26 11:01:33;;;;;;;6.05;3.95;;;;;;;26.77;43.00;100673.61;1826073;77;25820;-61
2021/08/26 11:04:20;;;;;;;5.50;3.98;;;;;;;26.67;42.77;100676.17;1826456;77;26832;-62
2021/08/26 11:06:49;;;;;;;7.60;4.60;;;;;;;26.58;41.91;100666.61;1815396;77;25798;-61
2021/08/26 11:09:24;;;;;;;5.30;4.67;;;;;;;26.33;42.39;100672.73;1798989;78;25838;-61
2021/08/26 11:11:58;;;;;;;4.78;3.67;;;;;;;26.22;42.73;100668.91;1825453;78;26925;-62
2021/08/26 11:14:28;;;;;;;5.10;3.62;;;;;;;26.23;43.53;100664.25;1807987;79;25710;-62
2021/08/26 11:17:02;;;;;;;12.13;3.83;;;;;;;26.38;41.75;100668.70;1808426;79;27529;-61
2021/08/26 11:19:34;;;;;;;3.98;3.58;;;;;;;26.17;40.93;100663.30;1808593;79;25735;-61
2021/08/26 11:22:09;;;;;;;7.65;4.30;;;;;;;25.94;42.06;100660.87;1818513;77;25757;-62
2021/08/26 11:24:42;;;;;;;5.47;3.92;;;;;;;25.72;42.21;100650.14;1843642;77;26734;-61
2021/08/26 11:27:26;;;;;;;4.22;3.30;;;;;;;25.83;42.44;100652.06;1844023;77;25831;-61
2021/08/26 11:29:54;;;;;;;4.17;3.60;;;;;;;26.20;42.90;100650.41;1800750;77;27452;-61
2021/08/26 11:32:24;;;;;;;3.77;3.40;;;;;;;26.62;40.93;100649.84;1798821;78;25804;-61